DTMB/MIR METAR and TAF weather

Enter ICAO airport designator
Station Type Date Time Source
DTMB METAR 2022/12/10 01:30 UTC NOAA

DTMB 100130Z 24017KT 8000 FEW046 21/13 Q1007


Station Type Date Time Source
DTMB Decoded METAR 2022/12/10 01:30 UTC NOAA

Habib Bourguiba , Tunisia (DTMB) 35-46N 010-45E
Dec 09, 2022 - 08:30 PM EST / 2022.12.10 0130 UTC
Wind: from the WSW (240 degrees) at 20 MPH (17 KT):0
Visibility: 4 mile(s):0
Sky conditions: mostly clear
Temperature: 69 F (21 C)
Dew Point: 55 F (13 C)
Relative Humidity: 60%
Pressure (altimeter): 29.74 in. Hg (1007 hPa)
ob: DTMB 100130Z 24017KT 8000 FEW046 21/13 Q1007
cycle: 1

Station Type Date Time Source
DTMB TAF 2022/12/09 18:42 UTC NOAA

TAF TAF DTMB 091700Z 0918/1018 23013KT 8000 FEW026 PROB30
TEMPO 0921/1006 22020G45KT SQ FEW023TCU PROB40
TEMPO 1010/1016 26017G27KT 4000 TSRA FEW023CB

Example: see airport list